Time;durP1;ratioP1;P1;durP2;ratioP2;P2;SDS_P1;SDS_P2;PMS_P1;PMS_P2;Temp;Humidity;BMP_temperature;BMP_pressure;BME280_temperature;BME280_humidity;BME280_pressure;Samples;Min_cycle;Max_cycle;Signal;HPM_P1;HPM_P2
2021/12/14 00:00:17;;;;;;;18.83;7.13;;;19.40;52.60;;;;;;4954439;28;20142;-84
2021/12/14 00:02:42;;;;;;;21.45;7.88;;;19.40;52.30;;;;;;4940476;28;20043;-84
2021/12/14 00:05:08;;;;;;;18.08;6.60;;;19.40;52.30;;;;;;4954512;28;20114;-84
2021/12/14 00:07:34;;;;;;;16.23;6.53;;;19.40;52.30;;;;;;4954881;28;20121;-84
2021/12/14 00:10:12;;;;;;;17.50;7.15;;;19.40;52.40;;;;;;4954952;28;20046;-84
2021/12/14 00:12:53;;;;;;;17.85;7.38;;;19.30;52.30;;;;;;4955031;28;20034;-84
2021/12/14 00:15:18;;;;;;;18.90;6.75;;;19.40;52.40;;;;;;4954543;28;20125;-85
2021/12/14 00:17:50;;;;;;;16.65;6.60;;;19.70;52.50;;;;;;4955218;28;20047;-85
2021/12/14 00:20:18;;;;;;;17.50;7.05;;;19.30;52.30;;;;;;4954846;28;20081;-85
2021/12/14 00:25:41;;;;;;;16.75;6.70;;;19.30;52.30;;;;;;4954692;28;20110;-85
2021/12/14 00:28:14;;;;;;;16.98;6.22;;;19.40;52.30;;;;;;4954189;28;20058;-84
2021/12/14 00:30:40;;;;;;;15.90;6.50;;;19.30;52.30;;;;;;4954504;28;20047;-85
2021/12/14 00:33:07;;;;;;;16.35;6.00;;;19.30;52.30;;;;;;4954752;28;20046;-85
2021/12/14 00:35:33;;;;;;;15.02;5.57;;;19.30;52.30;;;;;;4954300;28;20078;-85
2021/12/14 00:37:58;;;;;;;14.13;6.10;;;19.30;52.40;;;;;;4954481;28;20093;-84
2021/12/14 00:40:27;;;;;;;15.25;5.80;;;19.30;52.40;;;;;;4952235;28;20062;-85
2021/12/14 00:42:53;;;;;;;13.20;5.60;;;19.30;52.40;;;;;;4953630;28;20073;-85
2021/12/14 00:45:19;;;;;;;16.45;5.93;;;19.30;52.40;;;;;;4954360;28;20051;-85
2021/12/14 00:47:45;;;;;;;13.15;5.70;;;19.20;52.30;;;;;;4954380;28;20475;-85
2021/12/14 00:50:10;;;;;;;14.00;5.57;;;19.20;52.30;;;;;;4928941;28;20090;-85
2021/12/14 00:52:36;;;;;;;15.82;6.43;;;19.30;52.40;;;;;;4916113;29;20503;-84
2021/12/14 00:55:03;;;;;;;13.45;5.35;;;20.10;52.80;;;;;;4916107;29;20138;-84
2021/12/14 00:57:29;;;;;;;13.60;5.07;;;20.40;52.90;;;;;;4915446;29;20059;-84
2021/12/14 00:59:55;;;;;;;12.77;5.15;;;19.20;52.30;;;;;;4915953;29;20047;-84
2021/12/14 01:02:22;;;;;;;12.70;5.13;;;19.20;52.30;;;;;;4900230;29;20040;-84
2021/12/14 01:04:51;;;;;;;11.10;5.05;;;19.20;52.30;;;;;;4915277;29;20057;-84
2021/12/14 01:07:17;;;;;;;13.30;5.25;;;19.20;52.40;;;;;;4915866;29;20106;-85
2021/12/14 01:09:45;;;;;;;12.57;5.35;;;19.20;52.30;;;;;;4915990;29;20087;-84
2021/12/14 01:12:15;;;;;;;12.18;4.70;;;19.20;52.30;;;;;;4915312;29;20043;-85
2021/12/14 01:15:26;;;;;;;13.93;5.75;;;19.20;52.40;;;;;;4915798;29;20044;-84
2021/12/14 01:18:28;;;;;;;13.35;4.95;;;19.20;52.30;;;;;;4941531;28;20054;-85
2021/12/14 01:20:45;;;;;;;11.38;4.88;;;19.20;52.30;;;;;;4972469;28;20057;-84
2021/12/14 01:23:18;;;;;;;12.73;4.70;;;19.20;52.40;;;;;;4973247;28;20406;-85
2021/12/14 01:25:47;;;;;;;13.05;5.15;;;19.20;52.40;;;;;;4972582;28;20480;-84
2021/12/14 01:28:21;;;;;;;11.38;4.88;;;19.10;52.30;;;;;;4973515;28;20096;-84
2021/12/14 01:31:05;;;;;;;13.50;4.72;;;19.10;52.30;;;;;;4973127;28;20050;-85
2021/12/14 01:33:31;;;;;;;9.88;4.13;;;19.10;52.40;;;;;;4973316;28;20126;-84
2021/12/14 01:35:57;;;;;;;10.23;3.65;;;19.10;52.30;;;;;;4973063;28;20046;-84
2021/12/14 01:40:55;;;;;;;11.77;4.13;;;19.10;52.30;;;;;;4957184;28;20056;-84
2021/12/14 01:43:36;;;;;;;11.07;3.90;;;19.10;52.30;;;;;;4957564;28;20736;-84
2021/12/14 01:46:11;;;;;;;10.27;4.13;;;19.10;52.40;;;;;;4972320;28;20071;-84
2021/12/14 01:48:38;;;;;;;9.32;3.88;;;19.60;52.60;;;;;;4972840;28;20545;-84
2021/12/14 01:51:06;;;;;;;11.18;4.63;;;19.10;52.40;;;;;;4972486;28;20046;-84
2021/12/14 01:53:32;;;;;;;11.18;3.90;;;19.10;52.30;;;;;;4956253;28;20050;-84
2021/12/14 01:55:59;;;;;;;9.63;4.13;;;19.10;52.40;;;;;;4987414;23;20068;-85
2021/12/14 01:58:32;;;;;;;10.07;3.85;;;19.10;52.30;;;;;;5022378;28;20072;-84
2021/12/14 02:01:01;;;;;;;10.45;3.95;;;19.00;52.30;;;;;;5011156;28;20136;-84
2021/12/14 02:03:40;;;;;;;9.05;3.63;;;19.00;52.30;;;;;;5011494;28;20107;-84
2021/12/14 02:06:06;;;;;;;9.38;3.65;;;19.00;52.30;;;;;;5011168;28;20741;-84
2021/12/14 02:08:35;;;;;;;9.70;3.65;;;19.00;52.30;;;;;;5012122;28;20132;-84
2021/12/14 02:11:03;;;;;;;7.63;3.30;;;19.00;52.40;;;;;;5011791;28;20059;-84
2021/12/14 02:13:44;;;;;;;8.50;3.40;;;19.00;52.30;;;;;;5011028;28;20045;-84
2021/12/14 02:16:11;;;;;;;8.88;3.45;;;19.00;53.00;;;;;;5011833;28;20136;-84
2021/12/14 02:18:37;;;;;;;9.30;3.13;;;19.00;52.30;;;;;;5010852;28;20061;-84
2021/12/14 02:21:08;;;;;;;8.95;3.13;;;19.00;52.30;;;;;;5010832;28;20063;-84
2021/12/14 02:23:35;;;;;;;9.68;3.58;;;19.00;52.30;;;;;;5011556;28;20129;-84
2021/12/14 02:26:02;;;;;;;8.27;3.40;;;19.00;52.30;;;;;;5011533;28;20523;-84
2021/12/14 02:28:27;;;;;;;7.10;3.00;;;19.00;52.30;;;;;;5013096;28;20079;-84
2021/12/14 02:30:54;;;;;;;8.85;3.45;;;19.00;52.40;;;;;;5015447;28;20073;-85
2021/12/14 02:33:29;;;;;;;10.80;3.30;;;19.00;52.40;;;;;;5032081;23;20045;-84
2021/12/14 02:35:54;;;;;;;8.85;3.50;;;19.00;52.30;;;;;;5034977;28;20056;-84
2021/12/14 02:38:20;;;;;;;7.07;3.33;;;19.00;52.30;;;;;;5035488;28;20043;-84
2021/12/14 02:41:01;;;;;;;8.27;2.95;;;19.00;52.40;;;;;;5035099;28;20049;-84
2021/12/14 02:43:29;;;;;;;8.68;3.25;;;19.00;52.30;;;;;;5034462;28;20045;-84
2021/12/14 02:46:05;;;;;;;7.80;3.20;;;19.00;52.30;;;;;;5035441;28;20075;-84
2021/12/14 02:48:31;;;;;;;7.88;3.08;;;19.00;52.40;;;;;;5034388;28;20132;-84
2021/12/14 02:50:57;;;;;;;8.95;3.47;;;18.90;52.30;;;;;;5034689;28;20143;-84
2021/12/14 02:53:22;;;;;;;8.20;3.13;;;18.90;52.30;;;;;;5035106;28;20037;-84
2021/12/14 02:55:48;;;;;;;8.10;2.97;;;19.00;53.00;;;;;;5034542;28;20099;-84
2021/12/14 02:58:13;;;;;;;7.65;2.80;;;18.90;52.30;;;;;;5035091;28;20045;-84
2021/12/14 03:00:43;;;;;;;8.13;3.03;;;18.90;52.30;;;;;;5034696;28;20492;-84
2021/12/14 03:03:09;;;;;;;6.78;2.75;;;18.90;52.30;;;;;;5034422;28;20488;-84
2021/12/14 03:05:36;;;;;;;7.30;3.15;;;18.90;52.30;;;;;;5034738;28;20048;-84
2021/12/14 03:08:43;;;;;;;7.10;2.42;;;18.90;52.30;;;;;;5034417;28;20053;-84
2021/12/14 03:11:11;;;;;;;6.72;2.83;;;18.90;52.30;;;;;;5033585;28;20041;-84
2021/12/14 03:13:38;;;;;;;6.03;2.28;;;18.90;52.30;;;;;;5034543;28;20145;-84
2021/12/14 03:16:07;;;;;;;7.22;2.70;;;20.40;53.10;;;;;;5018205;28;20564;-84
2021/12/14 03:18:35;;;;;;;7.05;2.80;;;18.90;52.30;;;;;;5034348;28;20048;-84
2021/12/14 03:21:13;;;;;;;6.78;2.83;;;18.90;52.40;;;;;;5034542;28;20061;-84
2021/12/14 03:23:41;;;;;;;6.47;2.42;;;18.90;52.30;;;;;;5033968;28;20472;-84
2021/12/14 03:26:08;;;;;;;6.57;2.40;;;18.90;52.30;;;;;;5034154;28;20045;-84
2021/12/14 03:28:34;;;;;;;6.47;2.58;;;18.80;52.30;;;;;;5032870;28;20057;-84
2021/12/14 03:31:22;;;;;;;6.25;2.58;;;18.90;52.30;;;;;;5033757;28;20052;-84
2021/12/14 03:33:52;;;;;;;6.47;2.47;;;18.90;53.10;;;;;;5028063;28;20527;-84
2021/12/14 03:36:30;;;;;;;5.90;2.10;;;18.90;52.40;;;;;;5033970;28;20094;-84
2021/12/14 03:38:58;;;;;;;6.05;2.20;;;18.80;52.30;;;;;;5032723;28;20132;-84
2021/12/14 03:41:26;;;;;;;7.78;2.67;;;18.80;52.30;;;;;;5033663;28;20045;-84
2021/12/14 03:44:04;;;;;;;6.80;2.47;;;18.80;52.30;;;;;;5033709;28;20436;-85
2021/12/14 03:46:31;;;;;;;8.50;2.85;;;18.80;52.30;;;;;;5032067;28;20135;-84
2021/12/14 03:48:56;;;;;;;5.47;2.25;;;18.80;52.30;;;;;;5017523;28;20049;-84
2021/12/14 03:51:22;;;;;;;5.43;2.08;;;18.80;52.40;;;;;;5033862;28;20091;-84
2021/12/14 03:53:50;;;;;;;6.78;2.47;;;18.80;52.30;;;;;;5033269;28;20037;-84
2021/12/14 03:56:15;;;;;;;6.38;2.83;;;18.80;52.30;;;;;;5033781;28;20045;-84
2021/12/14 03:58:42;;;;;;;6.80;2.47;;;18.80;52.30;;;;;;5032686;28;20074;-84
2021/12/14 04:01:14;;;;;;;6.15;2.50;;;18.80;52.40;;;;;;5017095;28;20045;-84
2021/12/14 04:03:40;;;;;;;5.80;2.00;;;18.80;52.40;;;;;;5033547;28;20114;-84
2021/12/14 04:06:05;;;;;;;5.13;2.13;;;18.80;52.30;;;;;;5033218;28;20139;-84
2021/12/14 04:08:31;;;;;;;7.18;2.72;;;19.30;52.70;;;;;;5025624;28;20049;-84
2021/12/14 04:10:59;;;;;;;5.40;2.10;;;18.80;52.40;;;;;;5033642;28;20700;-84
2021/12/14 04:13:27;;;;;;;4.70;2.00;;;18.80;52.40;;;;;;5032637;28;20051;-84
2021/12/14 04:15:53;;;;;;;5.80;2.20;;;18.80;52.40;;;;;;5016786;28;20241;-84
2021/12/14 04:18:18;;;;;;;5.85;2.15;;;18.80;52.40;;;;;;5033247;28;20052;-84
2021/12/14 04:20:45;;;;;;;5.53;1.92;;;18.80;52.40;;;;;;5032565;28;20045;-84
2021/12/14 04:23:15;;;;;;;5.60;2.25;;;18.80;52.40;;;;;;5033360;28;20102;-84
2021/12/14 04:25:41;;;;;;;5.70;2.25;;;18.70;52.30;;;;;;5033488;28;20145;-84
2021/12/14 04:28:08;;;;;;;6.10;2.30;;;18.80;52.40;;;;;;5030870;28;20496;-84
2021/12/14 04:30:34;;;;;;;4.90;1.90;;;18.80;52.40;;;;;;5033066;28;20400;-84
2021/12/14 04:33:03;;;;;;;5.70;2.25;;;18.70;52.30;;;;;;5032939;28;20504;-84
2021/12/14 04:35:34;;;;;;;5.00;1.92;;;18.70;52.30;;;;;;5032190;28;20041;-84
2021/12/14 04:38:06;;;;;;;5.22;2.22;;;18.70;52.30;;;;;;5033190;28;20067;-84
2021/12/14 04:51:57;;;;;;;4.93;1.90;;;18.70;52.40;;;;;;5032273;28;20404;-84
2021/12/14 04:54:24;;;;;;;5.45;2.15;;;18.70;52.40;;;;;;5018806;28;20103;-84
2021/12/14 04:56:49;;;;;;;4.70;1.67;;;18.70;52.40;;;;;;5032271;28;20049;-84
2021/12/14 04:59:20;;;;;;;4.72;1.92;;;18.70;52.40;;;;;;5032458;28;20045;-85
2021/12/14 05:01:46;;;;;;;5.78;2.00;;;18.70;52.40;;;;;;5032104;28;20059;-84
2021/12/14 05:04:15;;;;;;;5.28;1.70;;;18.70;52.40;;;;;;5032058;28;20073;-84
2021/12/14 05:06:48;;;;;;;5.45;2.00;;;18.60;52.30;;;;;;5032294;28;20124;-84
2021/12/14 05:11:45;;;;;;;4.18;1.90;;;18.60;52.30;;;;;;5032210;28;20053;-84
2021/12/14 05:14:11;;;;;;;4.18;1.67;;;19.00;52.60;;;;;;5015594;28;20095;-84
2021/12/14 05:16:37;;;;;;;4.38;1.60;;;18.70;52.40;;;;;;5031470;28;20049;-84
2021/12/14 05:19:05;;;;;;;5.32;1.80;;;18.60;52.30;;;;;;5032688;28;20451;-84
2021/12/14 05:21:38;;;;;;;4.90;2.10;;;20.30;53.30;;;;;;5032423;28;20459;-84
2021/12/14 05:24:06;;;;;;;4.00;1.70;;;18.70;52.40;;;;;;5031495;28;20076;-84
2021/12/14 05:26:31;;;;;;;4.65;1.83;;;18.60;52.30;;;;;;5015849;28;20115;-84
2021/12/14 05:28:57;;;;;;;4.22;1.70;;;18.60;52.40;;;;;;5032179;28;20594;-84
2021/12/14 05:31:23;;;;;;;3.65;1.40;;;18.60;52.40;;;;;;5031476;28;20075;-85
2021/12/14 05:33:48;;;;;;;3.85;1.40;;;18.60;52.40;;;;;;5031561;28;20102;-84
2021/12/14 05:36:15;;;;;;;3.60;1.30;;;20.00;53.20;;;;;;5036922;23;20052;-84
2021/12/14 05:44:04;;;;;;;4.38;1.45;;;18.60;52.60;;;;;;5018389;28;20049;-84
2021/12/14 05:46:30;;;;;;;3.65;1.35;;;18.70;52.70;;;;;;5031473;28;20404;-84
2021/12/14 05:49:03;;;;;;;4.32;1.65;;;18.60;52.80;;;;;;5031974;28;20510;-84
2021/12/14 05:51:29;;;;;;;3.72;1.25;;;19.20;53.10;;;;;;5031562;28;20083;-84
2021/12/14 05:53:55;;;;;;;3.88;1.30;;;18.70;52.80;;;;;;5031971;28;20045;-84
2021/12/14 05:56:21;;;;;;;3.50;1.20;;;18.70;52.80;;;;;;5031716;28;20063;-84
2021/12/14 05:58:47;;;;;;;3.95;1.42;;;18.70;53.10;;;;;;5031240;28;20129;-84
2021/12/14 06:01:15;;;;;;;4.10;1.58;;;18.70;52.80;;;;;;5031588;28;20069;-84
2021/12/14 06:03:43;;;;;;;4.60;1.77;;;18.70;52.80;;;;;;5030832;28;20049;-84
2021/12/14 06:06:14;;;;;;;3.70;1.50;;;18.70;52.80;;;;;;5030928;28;20057;-84
2021/12/14 06:08:40;;;;;;;2.57;1.07;;;18.70;52.80;;;;;;5031776;28;20095;-84
2021/12/14 06:11:05;;;;;;;3.35;1.50;;;18.70;52.80;;;;;;5032075;28;20044;-84
2021/12/14 06:13:35;;;;;;;3.10;1.15;;;18.70;52.80;;;;;;5031398;28;20491;-84
2021/12/14 06:16:01;;;;;;;2.90;1.17;;;18.80;52.80;;;;;;5031425;28;20512;-84
2021/12/14 06:18:29;;;;;;;2.72;1.02;;;18.80;52.90;;;;;;5031471;28;20132;-85
2021/12/14 06:20:55;;;;;;;3.60;1.52;;;18.80;53.10;;;;;;5030589;28;20053;-84
2021/12/14 06:23:25;;;;;;;2.90;1.00;;;18.80;52.80;;;;;;5031398;28;20045;-84
2021/12/14 06:26:03;;;;;;;2.97;1.20;;;18.70;52.70;;;;;;5014879;28;20049;-84
2021/12/14 06:28:38;;;;;;;3.80;1.13;;;19.00;53.20;;;;;;5030651;28;20045;-84
2021/12/14 06:31:06;;;;;;;3.33;1.20;;;18.50;52.90;;;;;;5023264;28;20037;-84
2021/12/14 06:33:32;;;;;;;1.92;0.93;;;18.80;52.80;;;;;;5029644;28;20080;-85
2021/12/14 06:36:00;;;;;;;3.90;1.42;;;18.80;52.90;;;;;;5014366;28;20041;-85
2021/12/14 06:38:30;;;;;;;3.47;1.27;;;18.80;52.80;;;;;;5016823;28;20068;-85
2021/12/14 06:41:02;;;;;;;2.97;1.23;;;18.80;52.90;;;;;;5030376;28;20041;-85
2021/12/14 06:43:33;;;;;;;2.83;1.10;;;19.00;53.00;;;;;;5031111;28;20075;-85
2021/12/14 06:46:02;;;;;;;2.83;0.98;;;18.80;52.90;;;;;;5031066;28;20544;-85
2021/12/14 06:48:41;;;;;;;2.33;1.10;;;19.40;53.20;;;;;;5013886;28;20053;-84
2021/12/14 06:51:20;;;;;;;2.67;1.00;;;18.90;52.90;;;;;;4987285;28;20500;-85
2021/12/14 06:53:49;;;;;;;3.03;1.17;;;18.90;52.90;;;;;;4972066;28;20049;-85
2021/12/14 06:56:14;;;;;;;2.25;1.00;;;18.90;52.90;;;;;;4972031;28;20054;-84
2021/12/14 06:59:11;;;;;;;2.67;1.10;;;18.90;52.90;;;;;;4972444;28;20384;-85
2021/12/14 07:01:41;;;;;;;3.30;1.10;;;18.90;52.90;;;;;;4970591;28;20502;-84
2021/12/14 07:04:12;;;;;;;2.22;0.90;;;18.90;52.90;;;;;;4971880;28;20039;-84
2021/12/14 07:06:49;;;;;;;2.78;1.00;;;18.90;52.90;;;;;;4972146;28;20065;-85
2021/12/14 07:09:26;;;;;;;2.30;0.93;;;18.90;52.90;;;;;;4955418;28;20058;-84
2021/12/14 07:12:09;;;;;;;2.08;1.00;;;19.00;52.90;;;;;;4972152;28;20077;-83
2021/12/14 07:14:48;;;;;;;2.80;1.33;;;19.00;52.90;;;;;;4973066;28;20050;-84
2021/12/14 07:17:18;;;;;;;2.60;0.95;;;19.00;52.90;;;;;;4975825;28;20453;-84
2021/12/14 07:19:53;;;;;;;2.60;1.20;;;19.00;52.80;;;;;;4613791;28;10008650;-82
2021/12/14 07:22:32;;;;;;;2.72;1.15;;;19.00;52.80;;;;;;5031894;28;20056;-84
2021/12/14 07:25:07;;;;;;;2.58;1.08;;;19.00;52.80;;;;;;5033567;28;20060;-84
2021/12/14 07:27:37;;;;;;;2.58;1.10;;;19.00;52.80;;;;;;5034416;28;20431;-83
2021/12/14 07:30:36;;;;;;;3.55;1.10;;;19.00;52.80;;;;;;5033339;28;20119;-84
2021/12/14 07:33:12;;;;;;;2.08;1.05;;;19.00;52.80;;;;;;5028884;28;20485;-84
2021/12/14 07:35:46;;;;;;;2.45;1.25;;;19.00;52.80;;;;;;5028322;28;20085;-84
2021/12/14 07:38:14;;;;;;;1.90;0.88;;;19.00;52.70;;;;;;5021794;28;20382;-84
2021/12/14 07:40:41;;;;;;;2.58;1.15;;;19.00;52.70;;;;;;5027456;28;20049;-83
2021/12/14 07:43:14;;;;;;;2.95;1.10;;;19.00;52.70;;;;;;5031372;28;20103;-83
2021/12/14 07:45:41;;;;;;;3.30;1.40;;;19.00;52.60;;;;;;5031261;28;20059;-83
2021/12/14 07:48:06;;;;;;;3.65;1.02;;;19.00;52.70;;;;;;5028929;28;20501;-83
2021/12/14 07:50:44;;;;;;;2.08;0.98;;;19.00;52.60;;;;;;5033619;28;20114;-83
2021/12/14 07:53:10;;;;;;;2.30;1.00;;;19.00;52.60;;;;;;5033374;28;20053;-83
2021/12/14 07:55:41;;;;;;;2.67;1.15;;;19.00;52.60;;;;;;5033575;28;20052;-83
2021/12/14 07:58:07;;;;;;;3.63;1.05;;;19.00;52.60;;;;;;5032979;28;20048;-84
2021/12/14 08:00:35;;;;;;;1.80;0.90;;;19.10;52.70;;;;;;5033028;28;20045;-83
2021/12/14 08:03:01;;;;;;;2.83;1.00;;;19.00;52.60;;;;;;5017637;28;20088;-83
2021/12/14 08:05:41;;;;;;;2.22;1.02;;;19.10;52.60;;;;;;5016515;28;20048;-83
2021/12/14 08:08:18;;;;;;;1.60;0.90;;;19.00;52.60;;;;;;5032474;28;20045;-84
2021/12/14 08:10:56;;;;;;;3.15;1.20;;;19.00;52.60;;;;;;5018115;28;20053;-83
2021/12/14 08:13:23;;;;;;;2.08;1.15;;;19.10;52.60;;;;;;5032478;28;20056;-83
2021/12/14 08:15:57;;;;;;;2.90;1.38;;;19.00;52.60;;;;;;5023746;28;20084;-84
2021/12/14 08:18:33;;;;;;;2.70;1.23;;;19.00;52.60;;;;;;5013271;28;20045;-83
2021/12/14 08:21:10;;;;;;;3.85;1.27;;;19.00;52.60;;;;;;5014604;28;20049;-84
2021/12/14 08:23:37;;;;;;;1.73;0.90;;;19.10;52.60;;;;;;5029187;28;20045;-84
2021/12/14 08:26:06;;;;;;;2.47;1.13;;;18.80;52.40;;;;;;5031808;28;20048;-85
2021/12/14 08:28:32;;;;;;;2.50;1.10;;;19.10;52.70;;;;;;5020150;28;20045;-83
2021/12/14 08:31:12;;;;;;;2.97;1.45;;;19.00;52.60;;;;;;4993495;28;20058;-83
2021/12/14 08:33:56;;;;;;;2.53;1.00;;;19.10;52.60;;;;;;4987626;28;20460;-83
2021/12/14 08:36:22;;;;;;;3.10;1.30;;;19.40;52.80;;;;;;5019964;28;20140;-82
2021/12/14 08:38:59;;;;;;;2.42;1.23;;;19.10;52.60;;;;;;5028473;28;20556;-83
2021/12/14 08:41:26;;;;;;;2.15;1.15;;;19.00;52.60;;;;;;5026946;28;20044;-83
2021/12/14 08:43:54;;;;;;;2.45;1.20;;;17.70;52.00;;;;;;5031296;28;20041;-83
2021/12/14 08:46:29;;;;;;;1.98;1.17;;;19.00;52.60;;;;;;5026308;28;20096;-82
2021/12/14 08:48:57;;;;;;;3.28;1.30;;;19.00;52.60;;;;;;4093554;28;10001619;-85
2021/12/14 08:51:31;;;;;;;3.63;2.13;;;19.00;52.60;;;;;;5011886;28;20474;-85
2021/12/14 08:54:01;;;;;;;3.58;1.80;;;19.00;52.60;;;;;;5029434;28;20045;-85
2021/12/14 08:56:28;;;;;;;6.93;2.38;;;19.00;52.80;;;;;;4335020;28;10001363;-84
2021/12/14 08:58:53;;;;;;;4.72;1.90;;;19.30;53.00;;;;;;4666766;28;10000112;-84
2021/12/14 09:01:21;;;;;;;3.65;2.10;;;19.00;52.80;;;;;;5010074;28;20045;-84
2021/12/14 09:03:56;;;;;;;3.28;1.88;;;19.00;52.90;;;;;;5011530;28;20037;-84
2021/12/14 09:06:25;;;;;;;3.70;2.30;;;19.00;52.90;;;;;;4320319;28;10000413;-84
2021/12/14 09:08:51;;;;;;;3.85;2.17;;;19.00;53.00;;;;;;5021165;28;20477;-84
2021/12/14 09:11:19;;;;;;;4.43;1.95;;;19.00;53.00;;;;;;4991298;28;20038;-84
2021/12/14 09:13:45;;;;;;;3.03;2.03;;;18.90;53.00;;;;;;4990163;28;20046;-85
2021/12/14 09:16:16;;;;;;;4.05;2.03;;;18.90;53.00;;;;;;4974422;28;20088;-84
2021/12/14 09:18:44;;;;;;;3.50;1.95;;;19.00;53.10;;;;;;4989294;28;20054;-84
2021/12/14 09:21:12;;;;;;;3.33;1.60;;;19.00;53.00;;;;;;4992253;28;20080;-84
2021/12/14 09:23:40;;;;;;;3.47;1.98;;;19.00;53.00;;;;;;4992190;28;20057;-84
2021/12/14 09:26:08;;;;;;;3.70;1.88;;;18.90;53.00;;;;;;5007756;28;20719;-84
2021/12/14 09:28:35;;;;;;;3.38;1.95;;;19.20;53.20;;;;;;4986090;28;20057;-80
2021/12/14 09:31:03;;;;;;;3.40;1.83;;;18.90;53.00;;;;;;4976017;28;20037;-82
2021/12/14 09:33:29;;;;;;;9.57;1.95;;;18.90;53.00;;;;;;4991477;28;20054;-81
2021/12/14 09:35:56;;;;;;;3.70;2.00;;;18.90;53.30;;;;;;4991011;28;20053;-82
2021/12/14 09:38:30;;;;;;;3.45;1.77;;;18.90;53.10;;;;;;5002995;28;20128;-85
2021/12/14 09:40:56;;;;;;;5.55;1.98;;;18.90;53.10;;;;;;5039377;23;20133;-84
2021/12/14 09:43:22;;;;;;;4.35;1.98;;;18.90;53.20;;;;;;4988579;28;20137;-85
2021/12/14 09:45:52;;;;;;;6.18;2.33;;;19.00;53.20;;;;;;4980722;28;20045;-84
2021/12/14 09:48:30;;;;;;;6.55;2.42;;;18.90;53.10;;;;;;4987890;28;20073;-88
2021/12/14 09:50:56;;;;;;;4.43;1.83;;;19.00;53.20;;;;;;4983054;28;20087;-83
2021/12/14 09:53:23;;;;;;;4.70;1.80;;;19.00;53.40;;;;;;4993716;28;20049;-82
2021/12/14 09:55:50;;;;;;;3.60;1.58;;;19.00;53.30;;;;;;4990187;28;20072;-82
2021/12/14 09:58:21;;;;;;;4.45;1.67;;;19.00;53.40;;;;;;4984951;28;20088;-85
2021/12/14 10:00:51;;;;;;;3.65;1.48;;;19.10;53.40;;;;;;4988453;28;20057;-85
2021/12/14 10:03:16;;;;;;;4.70;1.80;;;19.10;53.40;;;;;;4989427;28;20038;-85
2021/12/14 10:05:50;;;;;;;5.22;1.50;;;19.10;53.40;;;;;;4980132;28;20085;-90
2021/12/14 10:08:19;;;;;;;7.85;2.15;;;19.10;53.40;;;;;;4980262;28;20084;-89
2021/12/14 10:11:09;;;;;;;3.25;1.42;;;19.10;53.30;;;;;;4978271;28;20048;-86
2021/12/14 10:13:38;;;;;;;4.22;1.90;;;19.20;53.30;;;;;;4983669;28;20105;-84
2021/12/14 10:16:19;;;;;;;4.15;2.08;;;20.10;53.60;;;;;;4987397;28;20673;-86
2021/12/14 10:18:51;;;;;;;34.45;12.73;;;19.20;53.10;;;;;;4982687;28;20833;-89
2021/12/14 10:21:20;;;;;;;45.17;19.42;;;19.30;53.10;;;;;;4991243;28;20057;-88
2021/12/14 10:23:47;;;;;;;68.85;25.48;;;19.30;53.10;;;;;;4994288;28;20058;-91
2021/12/14 10:26:12;;;;;;;66.13;24.30;;;19.30;53.20;;;;;;4991573;28;20038;-89
2021/12/14 10:28:39;;;;;;;54.95;21.75;;;19.30;53.20;;;;;;4986382;28;20478;-90
2021/12/14 10:31:10;;;;;;;55.90;20.60;;;19.40;53.10;;;;;;4987533;28;20037;-87
2021/12/14 10:33:38;;;;;;;46.15;19.92;;;19.40;53.10;;;;;;5000017;28;20062;-88
2021/12/14 10:36:13;;;;;;;52.03;22.00;;;19.40;53.00;;;;;;4984314;28;20508;-90
2021/12/14 10:39:01;;;;;;;90.43;33.10;;;19.40;53.00;;;;;;4971650;28;20069;-91
2021/12/14 10:44:09;;;;;;;85.00;31.42;;;19.40;53.00;;;;;;5008768;28;20736;-86
2021/12/14 10:46:40;;;;;;;66.97;29.80;;;19.50;53.00;;;;;;4990950;28;20053;-85
2021/12/14 10:49:05;;;;;;;62.20;28.38;;;19.50;52.80;;;;;;4993273;28;20050;-85
2021/12/14 10:51:39;;;;;;;58.67;27.88;;;19.50;53.50;;;;;;5011556;28;20076;-86
2021/12/14 10:54:50;;;;;;;59.60;25.30;;;19.50;52.70;;;;;;5011057;28;20057;-92
2021/12/14 10:57:20;;;;;;;53.42;23.50;;;19.50;52.90;;;;;;4955964;28;20132;-90
2021/12/14 11:00:29;;;;;;;52.95;22.08;;;21.30;53.80;;;;;;4994338;28;20105;-94
2021/12/14 11:03:12;;;;;;;47.88;20.80;;;19.50;52.90;;;;;;4949026;29;20495;-88
2021/12/14 11:05:39;;;;;;;42.72;17.80;;;19.10;52.90;;;;;;4960445;28;20062;-90
2021/12/14 11:08:06;;;;;;;40.00;16.30;;;19.30;52.90;;;;;;4989404;28;20042;-90
2021/12/14 11:10:37;;;;;;;35.28;15.25;;;19.70;53.20;;;;;;5013008;28;20490;-89
2021/12/14 11:13:14;;;;;;;84.13;29.67;;;20.70;53.70;;;;;;4989642;28;20072;-88
2021/12/14 11:15:46;;;;;;;83.10;29.23;;;19.40;53.70;;;;;;4992616;28;20046;-89
2021/12/14 11:18:19;;;;;;;70.97;24.77;;;19.20;53.00;;;;;;4994488;28;20096;-86
2021/12/14 11:20:49;;;;;;;52.50;21.02;;;19.50;53.00;;;;;;4994105;28;20065;-87
2021/12/14 11:23:32;;;;;;;40.85;17.27;;;19.60;53.00;;;;;;4814405;28;5091129;-86
2021/12/14 11:26:02;;;;;;;41.45;16.77;;;19.60;52.90;;;;;;4994391;28;20069;-87
2021/12/14 11:28:43;;;;;;;36.13;15.23;;;19.60;52.90;;;;;;4993448;28;20128;-86
2021/12/14 11:31:34;;;;;;;35.83;15.18;;;19.60;52.90;;;;;;4987759;28;20116;-87
2021/12/14 11:34:12;;;;;;;36.50;15.13;;;19.60;52.90;;;;;;4972243;28;20058;-86
2021/12/14 11:36:55;;;;;;;36.28;15.02;;;19.60;52.90;;;;;;4992248;28;20046;-87
2021/12/14 11:39:28;;;;;;;39.75;15.40;;;19.60;52.90;;;;;;4994008;28;20045;-87
2021/12/14 11:42:07;;;;;;;38.05;14.98;;;19.60;52.90;;;;;;4991084;28;20053;-87
2021/12/14 11:44:34;;;;;;;36.28;14.20;;;19.60;52.90;;;;;;4998519;28;20050;-87
2021/12/14 11:47:06;;;;;;;40.47;15.13;;;19.60;52.90;;;;;;4988033;28;20053;-85
2021/12/14 11:49:51;;;;;;;36.75;14.85;;;19.60;52.90;;;;;;4987198;28;20062;-91
2021/12/14 11:52:38;;;;;;;41.30;14.95;;;19.60;52.90;;;;;;4974931;28;20043;-91
2021/12/14 11:55:30;;;;;;;33.75;14.18;;;19.60;52.80;;;;;;4975453;28;20042;-91
2021/12/14 11:58:30;;;;;;;34.55;13.98;;;19.60;52.80;;;;;;4972065;28;20104;-96
2021/12/14 12:01:16;;;;;;;32.40;14.25;;;19.60;52.80;;;;;;4976211;28;20502;-91
2021/12/14 12:04:10;;;;;;;36.35;14.10;;;19.60;52.80;;;;;;4975451;28;20042;-91
2021/12/14 12:09:28;;;;;;;34.13;12.50;;;19.50;52.70;;;;;;4975565;28;20042;-91
2021/12/14 12:09:40;;;;;;;36.53;13.35;;;20.70;53.40;;;;;;4974336;28;20843;-91
2021/12/14 12:12:18;;;;;;;31.52;12.70;;;19.50;52.70;;;;;;4977836;28;20053;-90
2021/12/14 12:15:08;;;;;;;32.35;12.43;;;19.50;52.70;;;;;;5008249;28;20614;-91
2021/12/14 12:17:51;;;;;;;27.98;11.82;;;19.50;52.70;;;;;;5014624;28;20136;-91
2021/12/14 12:20:42;;;;;;;31.55;11.75;;;19.50;52.70;;;;;;5013782;28;20128;-90
2021/12/14 12:23:11;;;;;;;27.33;11.80;;;19.50;52.80;;;;;;5017779;28;20045;-93
2021/12/14 12:25:44;;;;;;;28.20;11.93;;;19.50;52.80;;;;;;5035042;28;20049;-93
2021/12/14 12:28:15;;;;;;;28.42;12.35;;;19.50;52.80;;;;;;5034891;28;20412;-90
2021/12/14 12:30:49;;;;;;;30.00;11.60;;;19.50;52.80;;;;;;5041413;28;20064;-96
2021/12/14 12:33:34;;;;;;;24.00;10.75;;;19.50;53.00;;;;;;5034406;28;20046;-88
2021/12/14 12:36:07;;;;;;;23.75;10.73;;;19.50;53.10;;;;;;5011614;28;20085;-95
2021/12/14 12:38:47;;;;;;;22.33;10.25;;;19.50;53.00;;;;;;5016901;28;20047;-93
2021/12/14 12:41:41;;;;;;;24.15;10.20;;;19.50;53.00;;;;;;5014362;28;20061;-96
2021/12/14 12:44:21;;;;;;;22.02;10.02;;;19.50;53.00;;;;;;5000205;28;20125;-94
2021/12/14 12:47:06;;;;;;;23.17;10.18;;;19.50;53.00;;;;;;4995480;28;20081;-95
2021/12/14 12:49:37;;;;;;;23.45;10.13;;;19.50;53.00;;;;;;4982180;28;20042;-94
2021/12/14 12:52:05;;;;;;;21.67;9.60;;;19.50;53.10;;;;;;4996859;28;20046;-92
2021/12/14 12:54:44;;;;;;;19.73;8.48;;;19.50;53.10;;;;;;4995788;28;20050;-95
2021/12/14 12:57:27;;;;;;;21.13;8.73;;;19.50;53.10;;;;;;4995926;28;20062;-93
2021/12/14 12:59:56;;;;;;;121.95;33.08;;;19.50;53.10;;;;;;4995565;28;20104;-93
2021/12/14 13:02:25;;;;;;;101.10;32.72;;;19.50;53.30;;;;;;5002887;28;20116;-96
2021/12/14 13:04:59;;;;;;;147.45;43.30;;;19.50;53.20;;;;;;5020534;28;20053;-96
2021/12/14 13:07:36;;;;;;;149.98;41.83;;;19.50;53.20;;;;;;5019462;28;20041;-93
2021/12/14 13:10:22;;;;;;;109.10;35.88;;;19.40;53.30;;;;;;5013088;28;20041;-90
2021/12/14 13:13:11;;;;;;;115.32;35.70;;;19.50;53.20;;;;;;5015728;28;20054;-94
2021/12/14 13:15:39;;;;;;;110.47;34.78;;;19.50;53.50;;;;;;5015667;28;20049;-96
2021/12/14 13:18:35;;;;;;;111.97;34.05;;;19.60;53.40;;;;;;5016690;28;20045;-91
2021/12/14 13:21:25;;;;;;;91.28;30.08;;;19.60;53.50;;;;;;5012985;28;20056;-89
2021/12/14 13:24:05;;;;;;;59.75;21.63;;;19.50;53.50;;;;;;5012045;28;20144;-89
2021/12/14 13:27:13;;;;;;;62.05;21.15;;;19.50;53.70;;;;;;5012242;28;20077;-90
2021/12/14 13:29:54;;;;;;;57.88;20.48;;;19.60;53.80;;;;;;4997362;28;20076;-94
2021/12/14 13:32:23;;;;;;;52.17;20.52;;;20.10;54.00;;;;;;5020295;28;20179;-90